createdAt,value
2022-10-21T00:04:11.328Z,77566.47
2022-10-21T00:06:37.883Z,77590.34
2022-10-21T00:09:11.491Z,77560.50
2022-10-21T00:11:38.519Z,77562.50
2022-10-21T00:14:05.047Z,77560.50
2022-10-21T00:16:31.572Z,77562.50
2022-10-21T00:18:58.075Z,77564.50
2022-10-21T00:21:24.687Z,77566.47
2022-10-21T00:23:51.220Z,77554.56
2022-10-21T00:26:18.328Z,77556.53
2022-10-21T00:28:44.968Z,77562.50
2022-10-21T00:31:14.229Z,77564.50
2022-10-21T00:33:41.253Z,77572.44
2022-10-21T00:36:14.690Z,77558.53
2022-10-21T00:38:45.721Z,77568.47
2022-10-21T00:41:13.728Z,77572.44
2022-10-21T00:44:00.600Z,77558.53
2022-10-21T00:46:51.100Z,77568.47
2022-10-21T00:49:31.172Z,77556.53
2022-10-21T00:52:00.374Z,77554.56
2022-10-21T00:54:30.013Z,77554.56
2022-10-21T00:56:57.701Z,77574.44
2022-10-21T00:59:26.947Z,77572.44
2022-10-21T01:01:54.282Z,77576.41
2022-10-21T01:04:20.948Z,77578.41
2022-10-21T01:06:47.759Z,77554.56
2022-10-21T01:09:15.112Z,77556.53
2022-10-21T01:11:44.679Z,77552.56
2022-10-21T01:14:36.802Z,77554.56
2022-10-21T01:17:20.584Z,77554.56
2022-10-21T01:20:19.465Z,77564.50
2022-10-21T01:23:04.637Z,77550.56
2022-10-21T01:25:46.366Z,77552.56
2022-10-21T01:28:18.890Z,77542.63
2022-10-21T01:31:01.131Z,77544.63
2022-10-21T01:33:32.787Z,77512.81
2022-10-21T01:36:11.405Z,77508.84
2022-10-21T01:38:40.724Z,77510.81
2022-10-21T01:41:23.865Z,77488.97
2022-10-21T01:44:15.900Z,77488.97
2022-10-21T01:46:59.214Z,77492.94
2022-10-21T01:49:38.220Z,77498.91
2022-10-21T01:52:05.511Z,77494.91
2022-10-21T01:54:39.855Z,77484.97
2022-10-21T01:57:08.725Z,77486.97
2022-10-21T01:59:35.620Z,77484.97
2022-10-21T02:02:06.810Z,77481.00
2022-10-21T02:04:35.036Z,77475.03
2022-10-21T02:07:02.511Z,77455.16
2022-10-21T02:09:29.038Z,77451.19
2022-10-21T02:11:59.498Z,77437.28
2022-10-21T02:14:32.329Z,77447.22
2022-10-21T02:17:00.332Z,77433.31
2022-10-21T02:19:27.666Z,77435.28
2022-10-21T02:21:59.035Z,77435.28
2022-10-21T02:24:56.942Z,77429.31
2022-10-21T02:27:24.431Z,77429.31
2022-10-21T02:29:55.123Z,77415.41
2022-10-21T02:32:52.689Z,77405.47
2022-10-21T02:35:57.967Z,77415.41
2022-10-21T02:38:37.978Z,77387.59
2022-10-21T02:41:09.468Z,77391.56
2022-10-21T02:43:41.614Z,77391.56
2022-10-21T02:46:11.117Z,77355.78
2022-10-21T02:48:39.649Z,77355.78
2022-10-21T02:51:07.985Z,77349.81
2022-10-21T02:53:35.800Z,77361.75
2022-10-21T02:56:02.845Z,77357.78
2022-10-21T02:58:30.134Z,77357.78
2022-10-21T03:00:56.737Z,77361.75
2022-10-21T03:03:23.345Z,77353.78
2022-10-21T03:05:49.864Z,77349.81
2022-10-21T03:08:16.456Z,77351.81
2022-10-21T03:10:43.291Z,77345.84
2022-10-21T03:13:09.911Z,77339.88
2022-10-21T03:15:36.387Z,77359.75
2022-10-21T03:18:02.920Z,77365.72
2022-10-21T03:20:29.366Z,77357.78
2022-10-21T03:22:55.840Z,77363.72
2022-10-21T03:25:22.290Z,77375.66
2022-10-21T03:27:50.741Z,77353.78
2022-10-21T03:30:17.412Z,77369.69
2022-10-21T03:32:43.901Z,77365.72
2022-10-21T03:35:10.415Z,77339.88
2022-10-21T03:37:36.919Z,77337.91
2022-10-21T03:40:07.452Z,77333.91
2022-10-21T03:42:36.848Z,77355.78
2022-10-21T03:45:03.712Z,77335.91
2022-10-21T03:47:30.224Z,77329.94
2022-10-21T03:49:57.332Z,77333.91
2022-10-21T03:52:23.864Z,77341.88
2022-10-21T03:54:50.344Z,77359.75
2022-10-21T03:57:16.825Z,77361.75
2022-10-21T03:59:43.342Z,77369.69
2022-10-21T04:02:09.809Z,77349.81
2022-10-21T04:04:36.284Z,77333.91
2022-10-21T04:07:02.863Z,77337.91
2022-10-21T04:09:29.359Z,77333.91
2022-10-21T04:11:55.802Z,77343.84
2022-10-21T04:14:22.279Z,77327.97
2022-10-21T04:16:53.653Z,77345.84
2022-10-21T04:19:28.752Z,77327.97
2022-10-21T04:21:55.192Z,77331.94
2022-10-21T04:24:21.724Z,77333.91
2022-10-21T04:26:49.278Z,77337.91
2022-10-21T04:29:15.759Z,77341.88
2022-10-21T04:31:42.363Z,77329.94
2022-10-21T04:34:08.901Z,77345.84
2022-10-21T04:36:35.520Z,77349.81
2022-10-21T04:39:01.972Z,77341.88
2022-10-21T04:41:28.547Z,77325.97
2022-10-21T04:43:55.243Z,77318.03
2022-10-21T04:46:21.824Z,77302.13
2022-10-21T04:48:48.457Z,77286.22
2022-10-21T04:51:14.942Z,77296.16
2022-10-21T04:53:41.459Z,77274.28
2022-10-21T04:56:09.225Z,77282.25
2022-10-21T04:58:35.921Z,77274.28
2022-10-21T05:01:03.349Z,77288.22
2022-10-21T05:03:30.620Z,77252.44
2022-10-21T05:05:57.139Z,77260.38
2022-10-21T05:08:23.731Z,77252.44
2022-10-21T05:10:57.303Z,77244.47
2022-10-21T05:13:23.747Z,77258.38
2022-10-21T05:15:50.206Z,77254.41
2022-10-21T05:18:16.684Z,77238.50
2022-10-21T05:20:43.207Z,77234.53
2022-10-21T05:23:09.658Z,77226.59
2022-10-21T05:25:36.181Z,77202.75
2022-10-21T05:28:02.655Z,77224.59
2022-10-21T05:30:29.214Z,77218.63
2022-10-21T05:32:55.929Z,77222.63
2022-10-21T05:35:22.519Z,77212.69
2022-10-21T05:37:50.055Z,77198.75
2022-10-21T05:40:16.781Z,77196.78
2022-10-21T05:42:43.343Z,77194.78
2022-10-21T05:45:10.736Z,77194.78
2022-10-21T05:47:38.134Z,77208.69
2022-10-21T05:50:05.037Z,77184.84
2022-10-21T05:52:31.539Z,77196.78
2022-10-21T05:54:59.125Z,77180.88
2022-10-21T05:57:25.645Z,77180.88
2022-10-21T05:59:52.232Z,77166.97
2022-10-21T06:02:18.921Z,77163.00
2022-10-21T06:04:45.459Z,77159.00
2022-10-21T06:07:11.901Z,77161.00
2022-10-21T06:09:38.547Z,77161.00
2022-10-21T06:12:06.469Z,77161.00
2022-10-21T06:14:35.566Z,77155.03
2022-10-21T06:17:04.063Z,77139.13
2022-10-21T06:19:31.097Z,77145.09
2022-10-21T06:21:58.409Z,77131.19
2022-10-21T06:24:25.547Z,77151.06
2022-10-21T06:26:52.379Z,77143.13
2022-10-21T06:29:19.286Z,77129.19
2022-10-21T06:31:46.042Z,77143.13
2022-10-21T06:34:12.660Z,77143.13
2022-10-21T06:36:39.237Z,77141.13
2022-10-21T06:39:06.568Z,77139.13
2022-10-21T06:41:33.116Z,77127.22
2022-10-21T06:43:59.800Z,77117.28
2022-10-21T06:46:26.604Z,77107.34
2022-10-21T06:48:53.246Z,77123.25
2022-10-21T06:51:22.536Z,77105.34
2022-10-21T06:53:54.715Z,77103.38
2022-10-21T06:56:22.423Z,77089.44
2022-10-21T06:58:50.232Z,77093.44
2022-10-21T07:01:34.804Z,77099.38
2022-10-21T07:04:09.012Z,77107.34
2022-10-21T07:06:36.110Z,77103.38
2022-10-21T07:09:07.500Z,77099.38
2022-10-21T07:11:34.205Z,77101.38
2022-10-21T07:14:01.813Z,77087.47
2022-10-21T07:16:31.458Z,77099.38
2022-10-21T07:18:58.543Z,77075.53
2022-10-21T07:21:27.941Z,77071.56
2022-10-21T07:23:58.980Z,77063.63
2022-10-21T07:26:28.487Z,77061.63
2022-10-21T07:28:58.033Z,77065.59
2022-10-21T07:31:24.599Z,77051.69
2022-10-21T07:33:51.067Z,77047.72
2022-10-21T07:36:24.583Z,77021.88
2022-10-21T07:38:52.926Z,77021.88
2022-10-21T07:41:21.197Z,76992.06
2022-10-21T07:43:47.983Z,76994.06
2022-10-21T07:46:15.428Z,76978.16
2022-10-21T07:48:41.913Z,77004.00
2022-10-21T07:51:12.044Z,76984.13
2022-10-21T07:53:39.393Z,77004.00
2022-10-21T07:56:15.354Z,76982.13
2022-10-21T07:58:43.316Z,76970.19
2022-10-21T08:01:11.497Z,76952.31
2022-10-21T08:03:39.139Z,76944.38
2022-10-21T08:06:07.465Z,76944.38
2022-10-21T08:08:35.605Z,76940.41
2022-10-21T08:11:03.799Z,76934.44
2022-10-21T08:13:31.945Z,76938.41
2022-10-21T08:15:59.121Z,76914.56
2022-10-21T08:18:26.334Z,76900.66
2022-10-21T08:20:53.007Z,76922.50
2022-10-21T08:23:22.330Z,76922.50
2022-10-21T08:25:54.006Z,76904.63
2022-10-21T08:28:22.463Z,76900.66
2022-10-21T08:30:49.358Z,76884.75
2022-10-21T08:33:16.348Z,76878.78
2022-10-21T08:35:43.704Z,76856.94
2022-10-21T08:38:11.356Z,76874.81
2022-10-21T08:40:41.182Z,76874.81
2022-10-21T08:43:22.353Z,76862.88
2022-10-21T08:45:53.812Z,76854.94
2022-10-21T08:48:26.308Z,76839.03
2022-10-21T08:50:56.211Z,76845.00
2022-10-21T08:53:24.868Z,76866.84
2022-10-21T08:55:57.692Z,76821.16
2022-10-21T08:58:25.145Z,76833.06
2022-10-21T09:00:54.774Z,76829.09
2022-10-21T09:03:32.458Z,76817.19
2022-10-21T09:06:09.461Z,76815.19
2022-10-21T09:08:57.592Z,76799.28
2022-10-21T09:11:38.877Z,76801.28
2022-10-21T09:14:36.426Z,76785.38
2022-10-21T09:17:35.275Z,76767.50
2022-10-21T09:20:20.174Z,76755.56
2022-10-21T09:23:25.786Z,76729.75
2022-10-21T09:26:25.341Z,76703.91
2022-10-21T09:28:54.520Z,76688.00
2022-10-21T09:31:21.683Z,76684.03
2022-10-21T09:33:59.398Z,76668.13
2022-10-21T09:36:48.003Z,76731.72
2022-10-21T09:39:35.004Z,76737.69
2022-10-21T09:42:06.535Z,76743.66
2022-10-21T09:44:40.655Z,76757.56
2022-10-21T09:47:19.222Z,76773.47
2022-10-21T09:50:06.486Z,76759.53
2022-10-21T09:52:36.385Z,76741.66
2022-10-21T09:55:04.073Z,76717.81
2022-10-21T09:57:33.855Z,76690.00
2022-10-21T10:00:02.391Z,76668.13
2022-10-21T10:02:36.960Z,76674.09
2022-10-21T10:05:43.979Z,76656.22
2022-10-21T10:08:47.327Z,76664.16
2022-10-21T10:11:17.664Z,76644.28
2022-10-21T10:13:52.887Z,76634.34
2022-10-21T10:16:30.288Z,76614.47
2022-10-21T10:19:28.763Z,76586.66
2022-10-21T10:22:10.437Z,76548.91
2022-10-21T10:24:40.552Z,76523.06
2022-10-21T10:27:19.200Z,76507.16
2022-10-21T10:29:53.691Z,76487.28
2022-10-21T10:32:24.787Z,76447.56
2022-10-21T10:34:58.863Z,76447.56
2022-10-21T10:37:28.701Z,76419.72
2022-10-21T10:39:58.938Z,76397.88
2022-10-21T10:42:33.078Z,76360.13
2022-10-21T10:45:12.400Z,76342.25
2022-10-21T10:47:47.724Z,76320.38
2022-10-21T10:50:37.533Z,76316.41
2022-10-21T10:53:27.372Z,76312.44
2022-10-21T10:55:59.918Z,76322.38
2022-10-21T10:58:31.537Z,76314.41
2022-10-21T11:01:02.445Z,76346.22
2022-10-21T11:03:41.280Z,76338.25
2022-10-21T11:06:18.092Z,76374.03
2022-10-21T11:08:56.342Z,76381.97
2022-10-21T11:11:34.384Z,76401.84
2022-10-21T11:14:01.150Z,76403.84
2022-10-21T11:16:57.312Z,76433.66
2022-10-21T11:19:44.451Z,76415.75
2022-10-21T11:22:17.982Z,76425.69
2022-10-21T11:25:09.392Z,76407.81
2022-10-21T11:28:14.064Z,76374.03
2022-10-21T11:31:00.035Z,76368.06
2022-10-21T11:34:18.424Z,76324.34
2022-10-21T11:37:02.908Z,76316.41
2022-10-21T11:39:51.987Z,76284.63
2022-10-21T11:42:26.048Z,76282.63
2022-10-21T11:45:14.238Z,76278.66
2022-10-21T11:48:03.340Z,76278.66
2022-10-21T11:50:41.883Z,76284.63
2022-10-21T11:53:39.375Z,76278.66
2022-10-21T11:56:30.871Z,76312.44
2022-10-21T11:59:20.709Z,76346.22
2022-10-21T12:02:23.195Z,76340.25
2022-10-21T12:05:08.533Z,76364.09
2022-10-21T12:08:08.632Z,76376.03
2022-10-21T12:10:38.038Z,76362.09
2022-10-21T12:13:13.207Z,76366.09
2022-10-21T12:15:44.642Z,76360.13
2022-10-21T12:18:16.706Z,76344.22
2022-10-21T12:20:46.928Z,76342.25
2022-10-21T12:23:17.832Z,76334.28
2022-10-21T12:25:47.294Z,76328.34
2022-10-21T12:28:23.300Z,76324.34
2022-10-21T12:31:00.428Z,76314.41
2022-10-21T12:33:36.031Z,76314.41
2022-10-21T12:36:24.791Z,76296.53
2022-10-21T12:38:56.240Z,76296.53
2022-10-21T12:41:34.360Z,76290.56
2022-10-21T12:44:27.946Z,76290.56
2022-10-21T12:46:56.447Z,76288.59
2022-10-21T12:49:32.605Z,76280.66
2022-10-21T12:52:13.961Z,76292.56
2022-10-21T12:54:51.008Z,76288.59
2022-10-21T12:57:29.073Z,76284.63
2022-10-21T13:00:14.586Z,76282.63
2022-10-21T13:02:59.783Z,76288.59
2022-10-21T13:05:38.340Z,76286.59
2022-10-21T13:08:20.159Z,76290.56
2022-10-21T13:11:08.038Z,76296.53
2022-10-21T13:13:37.455Z,76266.72
2022-10-21T13:16:19.307Z,76272.69
2022-10-21T13:18:53.407Z,76258.78
2022-10-21T13:21:41.104Z,76264.75
2022-10-21T13:24:21.319Z,76268.72
2022-10-21T13:26:51.857Z,76284.63
2022-10-21T13:29:25.435Z,76272.69
2022-10-21T13:32:22.322Z,76272.69
2022-10-21T13:34:49.299Z,76304.50
2022-10-21T13:37:24.705Z,76306.47
2022-10-21T13:39:52.701Z,76292.56
2022-10-21T13:42:24.126Z,76300.50
2022-10-21T13:44:57.223Z,76298.53
2022-10-21T13:47:28.084Z,76302.50
2022-10-21T13:49:57.675Z,76280.66
2022-10-21T13:52:28.937Z,76276.66
2022-10-21T13:55:00.555Z,76308.47
2022-10-21T13:57:35.973Z,76310.44
2022-10-21T14:00:17.072Z,76316.41
2022-10-21T14:02:52.511Z,76304.50
2022-10-21T14:05:30.885Z,76314.41
2022-10-21T14:07:58.052Z,76318.41
2022-10-21T14:10:24.945Z,76316.41
2022-10-21T14:12:52.122Z,76320.38
2022-10-21T14:15:28.328Z,76328.34
2022-10-21T14:17:58.663Z,76334.28
2022-10-21T14:20:33.970Z,76340.25
2022-10-21T14:23:15.307Z,76332.31
2022-10-21T14:25:42.253Z,76338.25
2022-10-21T14:28:12.224Z,76334.28
2022-10-21T14:30:39.045Z,76334.28
2022-10-21T14:33:08.605Z,76344.22
2022-10-21T14:35:35.136Z,76342.25
2022-10-21T14:38:03.836Z,76330.31
2022-10-21T14:40:36.006Z,76332.31
2022-10-21T14:43:11.474Z,76340.25
2022-10-21T14:45:45.697Z,76344.22
2022-10-21T14:48:24.440Z,76344.22
2022-10-21T14:51:01.567Z,76348.19
2022-10-21T14:53:34.817Z,76334.28
2022-10-21T14:56:05.011Z,76340.25
2022-10-21T14:58:35.847Z,76336.28
2022-10-21T15:01:12.059Z,76338.25
2022-10-21T15:03:39.755Z,76356.16
2022-10-21T15:06:10.416Z,76360.13
2022-10-21T15:08:41.096Z,76358.13
2022-10-21T15:11:09.065Z,76344.22
2022-10-21T15:13:35.660Z,76340.25
2022-10-21T15:16:04.077Z,76362.09
2022-10-21T15:18:41.200Z,76368.06
2022-10-21T15:21:12.550Z,76370.06
2022-10-21T15:23:41.609Z,76364.09
2022-10-21T15:26:16.364Z,76364.09
2022-10-21T15:28:43.328Z,76378.00
2022-10-21T15:31:36.295Z,76381.97
2022-10-21T15:34:02.858Z,76383.97
2022-10-21T15:36:29.372Z,76391.91
2022-10-21T15:38:55.840Z,76391.91
2022-10-21T15:41:25.167Z,76380.00
2022-10-21T15:44:16.582Z,76393.91
2022-10-21T15:46:46.946Z,76387.94
2022-10-21T15:49:18.264Z,76393.91
2022-10-21T15:51:44.899Z,76389.94
2022-10-21T15:54:11.396Z,76393.91
2022-10-21T15:56:38.211Z,76403.84
2022-10-21T15:59:04.845Z,76421.72
2022-10-21T16:01:31.537Z,76413.78
2022-10-21T16:04:04.152Z,76413.78
2022-10-21T16:06:30.714Z,76423.72
2022-10-21T16:08:59.990Z,76413.78
2022-10-21T16:11:40.473Z,76409.81
2022-10-21T16:14:10.233Z,76407.81
2022-10-21T16:16:39.293Z,76421.72
2022-10-21T16:19:06.137Z,76417.75
2022-10-21T16:21:32.776Z,76405.81
2022-10-21T16:23:59.326Z,76393.91
2022-10-21T16:26:28.152Z,76403.84
2022-10-21T16:28:56.629Z,76397.88
2022-10-21T16:31:24.504Z,76413.78
2022-10-21T16:33:51.008Z,76393.91
2022-10-21T16:36:23.921Z,76411.78
2022-10-21T16:38:51.216Z,76419.72
2022-10-21T16:41:20.896Z,76411.78
2022-10-21T16:43:47.831Z,76423.72
2022-10-21T16:46:26.311Z,76409.81
2022-10-21T16:48:53.839Z,76413.78
2022-10-21T16:51:23.891Z,76433.66
2022-10-21T16:53:50.483Z,76425.69
2022-10-21T16:56:17.723Z,76429.66
2022-10-21T16:58:44.312Z,76437.63
2022-10-21T17:01:15.562Z,76435.63
2022-10-21T17:03:42.692Z,76435.63
2022-10-21T17:06:14.744Z,76419.72
2022-10-21T17:08:41.675Z,76421.72
2022-10-21T17:11:17.289Z,76411.78
2022-10-21T17:13:43.976Z,76415.75
2022-10-21T17:16:10.565Z,76411.78
2022-10-21T17:18:37.048Z,76419.72
2022-10-21T17:21:04.172Z,76427.69
2022-10-21T17:23:31.646Z,76427.69
2022-10-21T17:25:58.165Z,76437.63
2022-10-21T17:28:24.756Z,76421.72
2022-10-21T17:30:52.950Z,76425.69
2022-10-21T17:33:43.123Z,76437.63
2022-10-21T17:36:09.728Z,76419.72
2022-10-21T17:38:36.397Z,76431.66
2022-10-21T17:41:03.174Z,76431.66
2022-10-21T17:43:29.785Z,76435.63
2022-10-21T17:45:57.072Z,76427.69
2022-10-21T17:48:25.323Z,76435.63
2022-10-21T17:50:56.566Z,76431.66
2022-10-21T17:53:32.545Z,76423.72
2022-10-21T17:56:04.831Z,76429.66
2022-10-21T17:58:31.728Z,76425.69
2022-10-21T18:00:58.702Z,76427.69
2022-10-21T18:03:27.396Z,76423.72
2022-10-21T18:05:55.719Z,76415.75
2022-10-21T18:08:23.795Z,76419.72
2022-10-21T18:10:58.311Z,76411.78
2022-10-21T18:13:27.312Z,76401.84
2022-10-21T18:15:54.832Z,76399.88
2022-10-21T18:18:22.758Z,76403.84
2022-10-21T18:20:49.284Z,76403.84
2022-10-21T18:23:16.106Z,76403.84
2022-10-21T18:25:43.387Z,76419.72
2022-10-21T18:28:10.176Z,76405.81
2022-10-21T18:30:42.488Z,76397.88
2022-10-21T18:33:09.561Z,76405.81
2022-10-21T18:35:36.133Z,76397.88
2022-10-21T18:38:02.633Z,76407.81
2022-10-21T18:40:29.458Z,76395.91
2022-10-21T18:42:56.156Z,76399.88
2022-10-21T18:45:22.789Z,76383.97
2022-10-21T18:47:51.248Z,76389.94
2022-10-21T18:50:18.065Z,76380.00
2022-10-21T18:52:44.566Z,76387.94
2022-10-21T18:55:11.097Z,76391.91
2022-10-21T18:57:37.891Z,76385.97
2022-10-21T19:00:08.988Z,76387.94
2022-10-21T19:02:35.475Z,76397.88
2022-10-21T19:05:02.589Z,76381.97
2022-10-21T19:07:29.383Z,76374.03
2022-10-21T19:09:56.207Z,76389.94
2022-10-21T19:12:23.680Z,76391.91
2022-10-21T19:14:50.872Z,76370.06
2022-10-21T19:17:17.741Z,76370.06
2022-10-21T19:19:48.570Z,76387.94
2022-10-21T19:22:23.737Z,76370.06
2022-10-21T19:30:21.227Z,76368.06
2022-10-21T19:32:48.311Z,76372.03
2022-10-21T19:35:14.974Z,76401.84
2022-10-21T19:37:41.445Z,76376.03
2022-10-21T19:40:10.414Z,76393.91
2022-10-21T19:42:37.165Z,76405.81
2022-10-21T19:45:04.061Z,76407.81
2022-10-21T19:47:31.318Z,76413.78
2022-10-21T19:49:57.966Z,76407.81
2022-10-21T19:52:24.536Z,76419.72
2022-10-21T19:54:52.473Z,76411.78
2022-10-21T19:57:19.193Z,76419.72
2022-10-21T19:59:45.718Z,76421.72
2022-10-21T20:02:12.185Z,76411.78
2022-10-21T20:04:38.699Z,76413.78
2022-10-21T20:07:05.254Z,76425.69
2022-10-21T20:09:33.905Z,76429.66
2022-10-21T20:12:02.940Z,76429.66
2022-10-21T20:14:29.476Z,76433.66
2022-10-21T20:16:55.934Z,76427.69
2022-10-21T20:19:22.478Z,76419.72
2022-10-21T20:21:49.467Z,76399.88
2022-10-21T20:24:17.031Z,76417.75
2022-10-21T20:26:45.547Z,76415.75
2022-10-21T20:29:13.233Z,76407.81
2022-10-21T20:31:39.759Z,76403.84
2022-10-21T20:34:06.673Z,76405.81
2022-10-21T20:36:34.763Z,76399.88
2022-10-21T20:39:03.203Z,76421.72
2022-10-21T20:41:34.231Z,76411.78
2022-10-21T20:44:02.153Z,76411.78
2022-10-21T20:46:32.432Z,76417.75
2022-10-21T20:48:58.957Z,76419.72
2022-10-21T20:51:29.056Z,76421.72
2022-10-21T20:54:00.530Z,76431.66
2022-10-21T20:56:29.154Z,76419.72
2022-10-21T20:58:56.324Z,76427.69
2022-10-21T21:01:28.409Z,76417.75
2022-10-21T21:03:59.147Z,76435.63
2022-10-21T21:06:26.324Z,76433.66
2022-10-21T21:09:22.081Z,76439.59
2022-10-21T21:11:39.812Z,76437.63
2022-10-21T21:14:06.587Z,76411.78
2022-10-21T21:16:33.281Z,76437.63
2022-10-21T21:19:05.092Z,76437.63
2022-10-21T21:21:33.837Z,76455.50
2022-10-21T21:24:00.803Z,76445.56
2022-10-21T21:26:29.811Z,76453.50
2022-10-21T21:28:56.372Z,76457.50
2022-10-21T21:31:25.978Z,76437.63
2022-10-21T21:33:52.494Z,76421.72
2022-10-21T21:36:20.631Z,76411.78
2022-10-21T21:38:47.618Z,76399.88
2022-10-21T21:41:16.646Z,76389.94
2022-10-21T21:43:48.141Z,76409.81
2022-10-21T21:46:22.765Z,76427.69
2022-10-21T21:49:04.639Z,76413.78
2022-10-21T21:51:34.515Z,76413.78
2022-10-21T21:54:01.132Z,76407.81
2022-10-21T21:56:28.369Z,76409.81
2022-10-21T21:58:56.901Z,76417.75
2022-10-21T22:01:29.305Z,76395.91
2022-10-21T22:03:56.679Z,76409.81
2022-10-21T22:08:59.445Z,76423.72
2022-10-21T22:11:28.835Z,76423.72
2022-10-21T22:13:55.708Z,76421.72
2022-10-21T22:16:24.390Z,76425.69
2022-10-21T22:18:51.274Z,76431.66
2022-10-21T22:21:18.691Z,76431.66
2022-10-21T22:23:46.630Z,76445.56
2022-10-21T22:26:14.362Z,76447.56
2022-10-21T22:28:41.510Z,76455.50
2022-10-21T22:31:11.498Z,76435.63
2022-10-21T22:33:38.512Z,76421.72
2022-10-21T22:36:05.981Z,76415.75
2022-10-21T22:38:32.477Z,76419.72
2022-10-21T22:41:01.175Z,76431.66
2022-10-21T22:43:28.105Z,76423.72
2022-10-21T22:46:05.132Z,76421.72
2022-10-21T22:48:42.029Z,76421.72
2022-10-21T22:51:08.549Z,76415.75
2022-10-21T22:53:36.557Z,76401.84
2022-10-21T22:56:04.021Z,76409.81
2022-10-21T22:58:30.838Z,76405.81
2022-10-21T23:00:57.542Z,76419.72
2022-10-21T23:03:24.024Z,76431.66
2022-10-21T23:05:50.562Z,76437.63
2022-10-21T23:08:18.158Z,76415.75
2022-10-21T23:10:47.617Z,76423.72
2022-10-21T23:13:14.088Z,76417.75
2022-10-21T23:15:40.562Z,76415.75
2022-10-21T23:18:07.038Z,76419.72
2022-10-21T23:20:33.560Z,76399.88
2022-10-21T23:23:00.162Z,76391.91
2022-10-21T23:25:27.453Z,76387.94
2022-10-21T23:27:54.261Z,76360.13
2022-10-21T23:30:21.223Z,76356.16
2022-10-21T23:32:48.066Z,76336.28
2022-10-21T23:35:15.788Z,76368.06
2022-10-21T23:37:42.861Z,76364.09
2022-10-21T23:40:10.543Z,76364.09
2022-10-21T23:42:41.840Z,76364.09
2022-10-21T23:45:11.117Z,76376.03
2022-10-21T23:47:38.719Z,76381.97
2022-10-21T23:50:06.417Z,76389.94
2022-10-21T23:52:32.919Z,76393.91
2022-10-21T23:54:59.352Z,76395.91
2022-10-21T23:57:26.348Z,76415.75
2022-10-21T23:59:52.991Z,76427.69
